createdAt,value
2022-12-25T00:01:11.269Z,100375.45
2022-12-25T00:03:48.276Z,100376.75
2022-12-25T00:06:16.105Z,100381.30
2022-12-25T00:08:44.073Z,100384.13
2022-12-25T00:11:13.820Z,100386.40
2022-12-25T00:13:42.792Z,100390.91
2022-12-25T00:16:13.247Z,100395.27
2022-12-25T00:18:41.135Z,100398.64
2022-12-25T00:21:08.888Z,100399.17
2022-12-25T00:23:36.565Z,100404.02
2022-12-25T00:26:08.713Z,100405.40
2022-12-25T00:28:36.971Z,100401.95
2022-12-25T00:31:08.462Z,100405.81
2022-12-25T00:33:37.207Z,100401.72
2022-12-25T00:36:06.418Z,100404.95
2022-12-25T00:38:35.103Z,100404.21
2022-12-25T00:41:13.377Z,100410.79
2022-12-25T00:43:44.158Z,100417.84
2022-12-25T00:46:12.661Z,100422.25
2022-12-25T00:48:40.824Z,100417.64
2022-12-25T00:51:11.064Z,100416.08
2022-12-25T00:53:38.755Z,100413.33
2022-12-25T00:56:07.480Z,100416.46
2022-12-25T00:58:35.419Z,100423.19
2022-12-25T01:02:04.384Z,100421.89
2022-12-25T01:04:32.369Z,100427.75
2022-12-25T01:07:00.119Z,100427.79
2022-12-25T01:09:46.413Z,100433.29
2022-12-25T01:12:15.354Z,100441.18
2022-12-25T01:14:43.508Z,100441.46
2022-12-25T01:17:12.625Z,100444.16
2022-12-25T01:19:42.884Z,100450.15
2022-12-25T01:22:11.555Z,100457.52
2022-12-25T01:24:40.794Z,100460.88
2022-12-25T01:27:10.683Z,100458.30
2022-12-25T01:29:40.273Z,100463.38
2022-12-25T01:32:08.630Z,100465.12
2022-12-25T01:34:37.898Z,100464.77
2022-12-25T01:37:05.885Z,100470.23
2022-12-25T01:39:34.158Z,100466.16
2022-12-25T01:42:02.338Z,100466.81
2022-12-25T01:44:35.013Z,100473.55
2022-12-25T01:47:06.830Z,100464.69
2022-12-25T01:49:36.410Z,100462.60
2022-12-25T01:52:24.816Z,100465.05
2022-12-25T01:54:57.730Z,100462.21
2022-12-25T01:57:29.502Z,100459.88
2022-12-25T01:59:57.806Z,100455.08
2022-12-25T02:02:25.929Z,100454.08
2022-12-25T02:05:04.657Z,100459.17
2022-12-25T02:07:33.675Z,100465.48
2022-12-25T02:10:01.597Z,100463.66
2022-12-25T02:12:32.328Z,100460.33
2022-12-25T02:15:08.346Z,100460.14
2022-12-25T02:17:50.209Z,100465.02
2022-12-25T02:20:23.809Z,100468.45
2022-12-25T02:23:10.463Z,100468.26
2022-12-25T02:25:47.302Z,100470.16
2022-12-25T02:28:24.094Z,100465.79
2022-12-25T02:31:02.505Z,100458.36
2022-12-25T02:33:54.246Z,100463.20
2022-12-25T02:36:24.034Z,100471.22
2022-12-25T02:39:13.387Z,100476.95
2022-12-25T02:41:43.855Z,100481.66
2022-12-25T02:44:35.321Z,100482.21
2022-12-25T02:47:23.438Z,100483.10
2022-12-25T02:50:11.579Z,100489.20
2022-12-25T02:52:59.259Z,100491.11
2022-12-25T02:55:49.476Z,100493.14
2022-12-25T02:58:38.446Z,100496.82
2022-12-25T03:01:27.837Z,100494.09
2022-12-25T03:04:15.842Z,100497.63
2022-12-25T03:06:57.175Z,100492.98
2022-12-25T03:09:46.409Z,100488.86
2022-12-25T03:12:20.623Z,100485.25
2022-12-25T03:15:07.366Z,100485.85
2022-12-25T03:17:35.651Z,100491.63
2022-12-25T03:20:22.687Z,100501.02
2022-12-25T03:23:09.222Z,100502.48
2022-12-25T03:25:55.727Z,100507.39
2022-12-25T03:28:25.512Z,100515.78
2022-12-25T03:31:14.209Z,100520.01
2022-12-25T03:34:02.153Z,100529.98
2022-12-25T03:36:41.112Z,100534.25
2022-12-25T03:39:51.692Z,100535.02
2022-12-25T03:42:41.939Z,100537.87
2022-12-25T03:45:32.126Z,100537.47
2022-12-25T03:48:19.240Z,100538.77
2022-12-25T03:51:07.541Z,100538.48
2022-12-25T03:54:01.693Z,100541.70
2022-12-25T03:56:49.152Z,100540.86
2022-12-25T03:59:41.256Z,100546.16
2022-12-25T04:02:27.759Z,100547.09
2022-12-25T04:05:14.583Z,100548.01
2022-12-25T04:08:01.340Z,100548.54
2022-12-25T04:10:48.141Z,100544.30
2022-12-25T04:13:34.598Z,100543.54
2022-12-25T04:16:23.732Z,100552.84
2022-12-25T04:19:10.031Z,100547.70
2022-12-25T04:21:56.400Z,100543.83
2022-12-25T04:24:43.605Z,100546.54
2022-12-25T04:27:30.712Z,100546.91
2022-12-25T04:30:26.010Z,100546.91
2022-12-25T04:33:16.096Z,100548.75
2022-12-25T04:36:08.492Z,100552.50
2022-12-25T04:38:37.313Z,100552.02
2022-12-25T04:41:06.521Z,100553.50
2022-12-25T04:43:34.493Z,100550.58
2022-12-25T04:46:03.342Z,100557.41
2022-12-25T04:48:32.706Z,100559.55
2022-12-25T04:51:15.389Z,100563.08
2022-12-25T04:53:43.913Z,100569.02
2022-12-25T04:56:11.902Z,100570.65
2022-12-25T04:58:41.781Z,100571.92
2022-12-25T05:01:10.239Z,100567.51
2022-12-25T05:03:38.031Z,100568.43
2022-12-25T05:06:06.792Z,100570.61
2022-12-25T05:08:35.158Z,100572.41
2022-12-25T05:11:07.677Z,100572.25
2022-12-25T05:13:36.194Z,100575.59
2022-12-25T05:16:07.629Z,100580.11
2022-12-25T05:18:35.733Z,100579.05
2022-12-25T05:21:04.519Z,100587.51
2022-12-25T05:23:32.313Z,100592.98
2022-12-25T05:26:03.404Z,100596.38
2022-12-25T05:28:31.390Z,100604.23
2022-12-25T05:30:59.379Z,100604.80
2022-12-25T05:33:27.216Z,100596.34
2022-12-25T05:35:55.666Z,100600.05
2022-12-25T05:38:23.346Z,100602.00
2022-12-25T05:40:52.170Z,100601.36
2022-12-25T05:43:20.101Z,100603.86
2022-12-25T05:45:47.720Z,100604.69
2022-12-25T05:48:16.073Z,100596.65
2022-12-25T05:50:44.395Z,100599.60
2022-12-25T05:53:13.560Z,100599.97
2022-12-25T05:55:43.767Z,100604.66
2022-12-25T05:58:12.669Z,100606.55
2022-12-25T06:00:40.880Z,100602.90
2022-12-25T06:03:09.987Z,100603.63
2022-12-25T06:05:39.225Z,100612.56
2022-12-25T06:08:09.614Z,100620.82
2022-12-25T06:10:37.509Z,100617.23
2022-12-25T06:13:05.492Z,100620.11
2022-12-25T06:15:33.804Z,100625.08
2022-12-25T06:18:01.693Z,100638.89
2022-12-25T06:20:29.673Z,100643.30
2022-12-25T06:22:57.263Z,100643.94
2022-12-25T06:25:25.205Z,100640.55
2022-12-25T06:27:53.620Z,100642.56
2022-12-25T06:30:21.611Z,100650.27
2022-12-25T06:32:49.594Z,100662.36
2022-12-25T06:35:17.566Z,100666.79
2022-12-25T06:37:45.151Z,100666.38
2022-12-25T06:40:15.635Z,100672.91
2022-12-25T06:42:43.920Z,100675.08
2022-12-25T06:45:11.599Z,100678.11
2022-12-25T06:47:40.444Z,100675.41
2022-12-25T06:50:09.465Z,100674.63
2022-12-25T06:52:37.072Z,100677.27
2022-12-25T06:55:05.294Z,100681.32
2022-12-25T06:57:33.120Z,100680.89
2022-12-25T07:00:03.546Z,100672.48
2022-12-25T07:02:32.894Z,100673.55
2022-12-25T07:05:01.175Z,100678.29
2022-12-25T07:07:28.829Z,100683.34
2022-12-25T07:09:56.495Z,100684.08
2022-12-25T07:12:24.676Z,100680.98
2022-12-25T07:14:53.931Z,100674.91
2022-12-25T07:17:23.579Z,100672.11
2022-12-25T07:19:51.514Z,100681.25
2022-12-25T07:22:20.675Z,100684.66
2022-12-25T07:24:48.548Z,100679.27
2022-12-25T07:27:16.860Z,100683.89
2022-12-25T07:29:44.530Z,100685.60
2022-12-25T07:32:12.331Z,100691.98
2022-12-25T07:34:40.465Z,100696.60
2022-12-25T07:37:08.193Z,100699.50
2022-12-25T07:39:36.097Z,100699.27
2022-12-25T07:42:04.228Z,100694.51
2022-12-25T07:44:32.328Z,100693.55
2022-12-25T07:47:00.152Z,100689.88
2022-12-25T07:49:28.122Z,100681.47
2022-12-25T07:51:55.838Z,100681.21
2022-12-25T07:54:23.618Z,100687.90
2022-12-25T07:56:52.505Z,100689.75
2022-12-25T07:59:20.617Z,100690.71
2022-12-25T08:01:50.552Z,100692.55
2022-12-25T08:04:18.779Z,100691.27
2022-12-25T08:06:46.487Z,100691.69
2022-12-25T08:09:14.255Z,100694.56
2022-12-25T08:11:46.656Z,100697.43
2022-12-25T08:14:14.749Z,100696.30
2022-12-25T08:16:42.754Z,100698.85
2022-12-25T08:19:11.768Z,100702.52
2022-12-25T08:21:39.541Z,100703.08
2022-12-25T08:24:07.529Z,100705.41
2022-12-25T08:26:35.381Z,100708.33
2022-12-25T08:29:03.403Z,100713.10
2022-12-25T08:31:34.144Z,100715.82
2022-12-25T08:34:03.089Z,100715.97
2022-12-25T08:36:30.922Z,100718.56
2022-12-25T08:39:02.987Z,100719.55
2022-12-25T08:41:32.130Z,100723.84
2022-12-25T08:44:00.194Z,100724.64
2022-12-25T08:46:28.136Z,100722.96
2022-12-25T08:48:57.150Z,100721.86
2022-12-25T08:51:25.666Z,100727.52
2022-12-25T08:53:57.851Z,100725.55
2022-12-25T08:56:26.192Z,100722.44
2022-12-25T08:58:54.330Z,100726.46
2022-12-25T09:01:22.728Z,100735.17
2022-12-25T09:03:50.972Z,100735.52
2022-12-25T09:06:19.367Z,100738.11
2022-12-25T09:08:49.553Z,100735.64
2022-12-25T09:11:18.521Z,100737.89
2022-12-25T09:13:46.803Z,100742.58
2022-12-25T09:16:16.508Z,100749.16
2022-12-25T09:18:46.650Z,100745.31
2022-12-25T09:21:15.468Z,100740.77
2022-12-25T09:23:45.213Z,100739.20
2022-12-25T09:26:14.684Z,100732.58
2022-12-25T09:28:50.293Z,100733.23
2022-12-25T09:31:20.702Z,100732.52
2022-12-25T09:33:49.149Z,100733.15
2022-12-25T09:36:17.310Z,100730.69
2022-12-25T09:38:45.387Z,100728.41
2022-12-25T09:41:32.104Z,100726.65
2022-12-25T09:44:10.289Z,100723.79
2022-12-25T09:46:41.334Z,100719.02
2022-12-25T09:49:20.345Z,100715.23
2022-12-25T09:51:52.387Z,100714.95
2022-12-25T09:54:24.635Z,100721.28
2022-12-25T09:56:52.465Z,100714.17
2022-12-25T09:59:27.404Z,100712.56
2022-12-25T10:02:06.533Z,100716.94
2022-12-25T10:04:40.494Z,100720.25
2022-12-25T10:07:15.293Z,100712.78
2022-12-25T10:09:50.942Z,100706.71
2022-12-25T10:12:27.230Z,100703.59
2022-12-25T10:15:04.444Z,100703.74
2022-12-25T10:17:51.255Z,100708.98
2022-12-25T10:20:19.197Z,100708.89
2022-12-25T10:22:51.511Z,100708.86
2022-12-25T10:25:23.830Z,100707.48
2022-12-25T10:27:55.477Z,100705.14
2022-12-25T10:30:24.117Z,100701.39
2022-12-25T10:32:52.960Z,100691.93
2022-12-25T10:35:22.279Z,100689.51
2022-12-25T10:38:00.604Z,100684.73
2022-12-25T10:40:29.561Z,100679.56
2022-12-25T10:43:04.488Z,100679.08
2022-12-25T10:45:42.011Z,100676.81
2022-12-25T10:48:15.038Z,100677.59
2022-12-25T10:50:43.308Z,100669.32
2022-12-25T10:53:18.172Z,100664.30
2022-12-25T10:56:02.869Z,100660.48
2022-12-25T10:58:31.103Z,100655.77
2022-12-25T11:01:02.044Z,100656.80
2022-12-25T11:03:31.998Z,100654.17
2022-12-25T11:06:00.341Z,100648.05
2022-12-25T11:08:33.302Z,100640.11
2022-12-25T11:11:09.342Z,100633.65
2022-12-25T11:13:47.855Z,100634.82
2022-12-25T11:16:28.081Z,100623.48
2022-12-25T11:18:56.589Z,100617.41
2022-12-25T11:21:24.349Z,100612.05
2022-12-25T11:23:58.133Z,100615.23
2022-12-25T11:26:26.642Z,100615.42
2022-12-25T11:28:56.391Z,100622.20
2022-12-25T11:31:33.114Z,100626.30
2022-12-25T11:34:10.382Z,100625.89
2022-12-25T11:36:48.704Z,100627.16
2022-12-25T11:39:17.817Z,100623.48
2022-12-25T11:41:45.971Z,100616.50
2022-12-25T11:44:27.515Z,100614.48
2022-12-25T11:46:56.313Z,100613.14
2022-12-25T11:49:24.561Z,100612.40
2022-12-25T11:51:54.424Z,100612.17
2022-12-25T11:54:31.010Z,100612.50
2022-12-25T11:57:00.062Z,100607.15
2022-12-25T11:59:31.988Z,100603.52
2022-12-25T12:02:18.238Z,100598.07
2022-12-25T12:04:49.689Z,100597.44
2022-12-25T12:07:21.751Z,100601.81
2022-12-25T12:10:03.444Z,100598.75
2022-12-25T12:12:50.908Z,100599.53
2022-12-25T12:15:39.544Z,100592.09
2022-12-25T12:18:29.214Z,100585.27
2022-12-25T12:21:08.110Z,100588.38
2022-12-25T12:23:47.498Z,100590.70
2022-12-25T12:26:26.021Z,100587.24
2022-12-25T12:29:23.543Z,100590.09
2022-12-25T12:31:54.370Z,100590.14
2022-12-25T12:34:24.175Z,100586.80
2022-12-25T12:36:54.741Z,100576.41
2022-12-25T12:39:25.676Z,100577.24
2022-12-25T12:41:54.248Z,100582.93
2022-12-25T12:44:26.366Z,100580.61
2022-12-25T12:46:56.854Z,100581.08
2022-12-25T12:49:35.622Z,100579.97
2022-12-25T12:52:23.810Z,100580.79
2022-12-25T12:54:55.675Z,100585.02
2022-12-25T12:57:25.599Z,100584.42
2022-12-25T12:59:53.433Z,100583.77
2022-12-25T13:02:30.184Z,100579.09
2022-12-25T13:05:06.874Z,100574.68
2022-12-25T13:07:44.310Z,100565.48
2022-12-25T13:10:24.339Z,100563.89
2022-12-25T13:12:58.297Z,100557.33
2022-12-25T13:15:27.962Z,100562.06
2022-12-25T13:17:57.557Z,100563.61
2022-12-25T13:20:33.302Z,100563.60
2022-12-25T13:23:01.223Z,100563.18
2022-12-25T13:25:28.814Z,100562.59
2022-12-25T13:27:57.332Z,100562.41
2022-12-25T13:30:25.717Z,100569.70
2022-12-25T13:32:53.624Z,100570.90
2022-12-25T13:35:23.015Z,100569.85
2022-12-25T13:37:51.256Z,100564.94
2022-12-25T13:40:25.321Z,100557.45
2022-12-25T13:43:00.557Z,100550.36
2022-12-25T13:45:30.110Z,100549.19
2022-12-25T13:47:58.328Z,100540.27
2022-12-25T13:50:26.019Z,100534.58
2022-12-25T13:52:54.875Z,100529.39
2022-12-25T13:55:24.576Z,100518.17
2022-12-25T13:57:59.726Z,100518.60
2022-12-25T14:00:36.563Z,100513.86
2022-12-25T14:03:05.568Z,100518.89
2022-12-25T14:05:42.138Z,100534.67
2022-12-25T14:08:15.673Z,100543.95
2022-12-25T14:10:46.411Z,100550.29
2022-12-25T14:13:15.075Z,100543.81
2022-12-25T14:15:43.852Z,100539.92
2022-12-25T14:18:14.957Z,100539.95
2022-12-25T14:20:54.403Z,100539.48
2022-12-25T14:23:22.421Z,100537.23
2022-12-25T14:25:50.230Z,100539.59
2022-12-25T14:28:19.969Z,100536.02
2022-12-25T14:30:48.369Z,100539.76
2022-12-25T14:33:17.653Z,100540.26
2022-12-25T14:35:45.872Z,100536.83
2022-12-25T14:38:23.546Z,100536.52
2022-12-25T14:41:01.981Z,100540.75
2022-12-25T14:43:31.249Z,100542.57
2022-12-25T14:46:02.666Z,100548.65
2022-12-25T14:48:31.453Z,100552.79
2022-12-25T14:51:05.573Z,100545.34
2022-12-25T14:53:53.198Z,100537.43
2022-12-25T14:56:22.326Z,100532.67
2022-12-25T14:58:51.845Z,100528.55
2022-12-25T15:01:39.973Z,100530.28
2022-12-25T15:04:08.003Z,100520.65
2022-12-25T15:06:37.278Z,100527.28
2022-12-25T15:09:14.758Z,100530.79
2022-12-25T15:11:42.803Z,100528.91
2022-12-25T15:14:10.363Z,100529.75
2022-12-25T15:16:41.339Z,100532.54
2022-12-25T15:19:13.043Z,100530.26
2022-12-25T15:21:40.663Z,100520.92
2022-12-25T15:24:11.850Z,100511.23
2022-12-25T15:26:39.852Z,100522.31
2022-12-25T15:29:07.820Z,100534.13
2022-12-25T15:31:37.048Z,100534.04
2022-12-25T15:34:07.771Z,100530.84
2022-12-25T15:36:35.573Z,100519.67
2022-12-25T15:39:03.290Z,100521.29
2022-12-25T15:41:52.811Z,100515.59
2022-12-25T15:44:20.735Z,100511.83
2022-12-25T15:46:48.799Z,100504.46
2022-12-25T15:49:16.973Z,100504.71
2022-12-25T15:51:44.949Z,100505.23
2022-12-25T15:54:13.990Z,100510.44
2022-12-25T15:56:41.586Z,100519.56
2022-12-25T15:59:10.085Z,100514.45
2022-12-25T16:01:40.573Z,100520.35
2022-12-25T16:04:08.337Z,100512.80
2022-12-25T16:06:36.009Z,100504.32
2022-12-25T16:09:03.983Z,100503.29
2022-12-25T16:11:32.018Z,100496.50
2022-12-25T16:13:59.978Z,100486.40
2022-12-25T16:16:28.003Z,100488.20
2022-12-25T16:18:57.758Z,100494.14
2022-12-25T16:21:25.584Z,100486.10
2022-12-25T16:23:53.476Z,100468.86
2022-12-25T16:26:21.130Z,100459.00
2022-12-25T16:28:48.992Z,100462.00
2022-12-25T16:31:17.055Z,100456.41
2022-12-25T16:33:46.999Z,100444.39
2022-12-25T16:36:20.727Z,100444.89
2022-12-25T16:38:52.971Z,100440.84
2022-12-25T16:41:22.082Z,100441.17
2022-12-25T16:43:49.918Z,100441.34
2022-12-25T16:46:19.421Z,100443.45
2022-12-25T16:48:47.418Z,100438.70
2022-12-25T16:51:18.183Z,100434.41
2022-12-25T16:53:46.286Z,100436.00
2022-12-25T16:56:16.482Z,100435.17
2022-12-25T16:58:46.745Z,100434.85
2022-12-25T17:01:16.857Z,100440.31
2022-12-25T17:03:44.622Z,100443.27
2022-12-25T17:06:13.742Z,100450.41
2022-12-25T17:08:43.454Z,100458.29
2022-12-25T17:11:11.916Z,100458.16
2022-12-25T17:13:39.673Z,100455.73
2022-12-25T17:16:18.609Z,100447.67
2022-12-25T17:18:46.356Z,100425.20
2022-12-25T17:21:14.988Z,100417.39
2022-12-25T17:23:47.792Z,100410.27
2022-12-25T17:26:16.418Z,100407.27
2022-12-25T17:28:44.264Z,100403.06
2022-12-25T17:31:16.455Z,100403.95
2022-12-25T17:33:44.592Z,100405.37
2022-12-25T17:36:14.775Z,100413.25
2022-12-25T17:38:43.198Z,100411.33
2022-12-25T17:41:12.271Z,100415.00
2022-12-25T17:43:42.696Z,100415.91
2022-12-25T17:46:17.171Z,100414.06
2022-12-25T17:48:45.986Z,100415.44
2022-12-25T17:51:16.094Z,100415.44
2022-12-25T17:53:44.957Z,100409.58
2022-12-25T17:56:17.196Z,100409.46
2022-12-25T17:58:49.332Z,100404.64
2022-12-25T18:01:17.855Z,100401.19
2022-12-25T18:03:45.866Z,100398.25
2022-12-25T18:06:17.996Z,100396.52
2022-12-25T18:08:46.618Z,100390.45
2022-12-25T18:11:15.746Z,100386.84
2022-12-25T18:13:45.069Z,100380.95
2022-12-25T18:16:13.365Z,100372.54
2022-12-25T18:18:45.195Z,100363.60
2022-12-25T18:21:17.813Z,100356.02
2022-12-25T18:23:46.492Z,100361.11
2022-12-25T18:26:15.564Z,100355.96
2022-12-25T18:28:44.057Z,100350.08
2022-12-25T18:31:13.793Z,100348.08
2022-12-25T18:33:42.164Z,100335.28
2022-12-25T18:36:10.928Z,100328.57
2022-12-25T18:38:38.576Z,100325.50
2022-12-25T18:41:07.062Z,100325.23
2022-12-25T18:43:52.711Z,100330.48
2022-12-25T18:46:24.940Z,100327.50
2022-12-25T18:48:56.639Z,100324.48
2022-12-25T18:51:24.644Z,100318.90
2022-12-25T18:53:52.298Z,100322.88
2022-12-25T18:56:21.956Z,100321.30
2022-12-25T18:58:49.668Z,100320.59
2022-12-25T19:01:22.204Z,100318.46
2022-12-25T19:03:51.888Z,100316.13
2022-12-25T19:06:23.953Z,100308.59
2022-12-25T19:08:52.520Z,100305.23
2022-12-25T19:11:20.354Z,100301.17
2022-12-25T19:13:48.046Z,100294.52
2022-12-25T19:16:17.976Z,100291.00
2022-12-25T19:18:45.966Z,100287.50
2022-12-25T19:21:14.058Z,100290.93
2022-12-25T19:23:42.001Z,100293.09
2022-12-25T19:26:10.551Z,100290.09
2022-12-25T19:28:38.761Z,100286.56
2022-12-25T19:31:07.693Z,100278.33
2022-12-25T19:33:36.662Z,100278.73
2022-12-25T19:36:05.780Z,100269.01
2022-12-25T19:38:33.769Z,100263.80
2022-12-25T19:41:05.905Z,100261.56
2022-12-25T19:43:35.449Z,100263.14
2022-12-25T19:46:03.567Z,100261.43
2022-12-25T19:48:32.561Z,100257.43
2022-12-25T19:51:00.271Z,100248.46
2022-12-25T19:53:29.408Z,100250.61
2022-12-25T19:56:01.176Z,100243.20
2022-12-25T19:58:31.114Z,100240.80
2022-12-25T20:01:05.546Z,100238.83
2022-12-25T20:03:38.765Z,100231.92
2022-12-25T20:06:22.042Z,100230.03
2022-12-25T20:08:52.987Z,100227.67
2022-12-25T20:11:21.647Z,100215.87
2022-12-25T20:13:49.917Z,100202.70
2022-12-25T20:16:18.097Z,100185.52
2022-12-25T20:18:48.523Z,100187.56
2022-12-25T20:21:18.020Z,100204.67
2022-12-25T20:23:48.020Z,100210.45
2022-12-25T20:26:17.412Z,100214.15
2022-12-25T20:28:46.665Z,100214.39
2022-12-25T20:31:22.024Z,100214.33
2022-12-25T20:33:50.190Z,100215.17
2022-12-25T20:36:18.945Z,100216.70
2022-12-25T20:38:46.848Z,100205.20
2022-12-25T20:41:31.166Z,100207.99
2022-12-25T20:44:02.059Z,100204.65
2022-12-25T20:46:30.146Z,100193.73
2022-12-25T20:48:57.945Z,100184.60
2022-12-25T20:51:26.426Z,100169.87
2022-12-25T20:53:55.478Z,100164.30
2022-12-25T20:56:24.235Z,100176.81
2022-12-25T20:58:53.553Z,100178.20
2022-12-25T21:01:21.534Z,100174.73
2022-12-25T21:03:49.583Z,100168.73
2022-12-25T21:06:18.114Z,100169.79
2022-12-25T21:08:45.716Z,100161.93
2022-12-25T21:11:16.359Z,100161.11
2022-12-25T21:13:46.225Z,100160.71
2022-12-25T21:16:16.184Z,100149.38
2022-12-25T21:18:46.504Z,100143.35
2022-12-25T21:21:15.240Z,100145.89
2022-12-25T21:23:42.901Z,100145.27
2022-12-25T21:26:11.162Z,100137.89
2022-12-25T21:28:39.369Z,100133.45
2022-12-25T21:31:07.764Z,100127.05
2022-12-25T21:33:54.552Z,100128.35
2022-12-25T21:36:26.828Z,100129.41
2022-12-25T21:38:59.005Z,100122.33
2022-12-25T21:41:28.072Z,100119.21
2022-12-25T21:43:56.053Z,100111.46
2022-12-25T21:46:24.436Z,100110.58
2022-12-25T21:48:52.845Z,100119.50
2022-12-25T21:51:40.744Z,100119.29
2022-12-25T21:54:10.016Z,100125.30
2022-12-25T21:56:43.998Z,100135.51
2022-12-25T21:59:15.214Z,100141.95
2022-12-25T22:01:44.652Z,100147.45
2022-12-25T22:04:13.899Z,100156.48
2022-12-25T22:07:00.998Z,100156.27
2022-12-25T22:09:28.988Z,100148.36
2022-12-25T22:12:17.259Z,100140.88
2022-12-25T22:14:54.773Z,100134.85
2022-12-25T22:17:43.863Z,100121.40
2022-12-25T22:20:14.160Z,100110.84
2022-12-25T22:22:42.015Z,100103.93
2022-12-25T22:25:11.048Z,100108.17
2022-12-25T22:27:39.905Z,100115.02
2022-12-25T22:30:09.739Z,100118.02
2022-12-25T22:32:37.678Z,100116.09
2022-12-25T22:35:05.649Z,100108.89
2022-12-25T22:37:33.493Z,100114.60
2022-12-25T22:40:03.044Z,100110.05
2022-12-25T22:42:30.788Z,100101.92
2022-12-25T22:44:58.704Z,100085.95
2022-12-25T22:47:26.438Z,100076.13
2022-12-25T22:49:54.146Z,100065.66
2022-12-25T22:52:22.388Z,100066.52
2022-12-25T22:54:50.285Z,100069.81
2022-12-25T22:57:17.921Z,100057.64
2022-12-25T22:59:47.135Z,100041.77
2022-12-25T23:02:15.129Z,100035.31
2022-12-25T23:04:42.968Z,100036.22
2022-12-25T23:07:14.258Z,100037.73
2022-12-25T23:09:42.739Z,100050.61
2022-12-25T23:12:30.522Z,100050.11
2022-12-25T23:14:58.887Z,100054.28
2022-12-25T23:17:45.588Z,100062.67
2022-12-25T23:20:33.317Z,100064.80
2022-12-25T23:23:19.935Z,100061.86
2022-12-25T23:26:06.992Z,100064.03
2022-12-25T23:28:53.981Z,100059.52
2022-12-25T23:31:24.825Z,100050.67
2022-12-25T23:33:52.483Z,100044.15
2022-12-25T23:36:20.155Z,100038.64
2022-12-25T23:38:48.158Z,100029.23
2022-12-25T23:41:15.831Z,100037.08
2022-12-25T23:43:43.424Z,100033.92
2022-12-25T23:46:11.445Z,100031.66
2022-12-25T23:48:39.095Z,100043.29
2022-12-25T23:51:07.285Z,100048.50
2022-12-25T23:53:35.547Z,100045.30
2022-12-25T23:56:03.908Z,100035.95
2022-12-25T23:58:33.371Z,100031.00
